createdAt,value
2023-04-20T00:01:20.570Z,86.99
2023-04-20T00:03:47.190Z,86.81
2023-04-20T00:06:14.086Z,86.70
2023-04-20T00:08:40.688Z,86.66
2023-04-20T00:11:07.226Z,86.50
2023-04-20T00:13:33.800Z,86.60
2023-04-20T00:16:00.594Z,86.84
2023-04-20T00:18:27.167Z,87.11
2023-04-20T00:20:53.785Z,86.47
2023-04-20T00:23:20.564Z,86.62
2023-04-20T00:25:49.675Z,87.60
2023-04-20T00:28:16.292Z,88.05
2023-04-20T00:30:42.879Z,87.13
2023-04-20T00:33:09.443Z,87.25
2023-04-20T00:35:36.053Z,87.72
2023-04-20T00:38:02.603Z,88.20
2023-04-20T00:40:29.279Z,87.99
2023-04-20T00:42:55.868Z,88.18
2023-04-20T00:45:22.590Z,87.77
2023-04-20T00:47:49.308Z,87.09
2023-04-20T00:50:16.183Z,87.88
2023-04-20T00:52:42.927Z,87.50
2023-04-20T00:55:09.772Z,88.30
2023-04-20T00:57:36.504Z,87.73
2023-04-20T01:00:03.736Z,87.88
2023-04-20T01:02:30.424Z,88.24
2023-04-20T01:04:57.131Z,89.12
2023-04-20T01:07:26.010Z,89.29
2023-04-20T01:09:52.596Z,88.59
2023-04-20T01:12:19.174Z,88.25
2023-04-20T01:14:45.734Z,88.53
2023-04-20T01:17:15.103Z,88.79
2023-04-20T01:19:42.120Z,88.46
2023-04-20T01:22:08.648Z,89.12
2023-04-20T01:24:35.190Z,88.16
2023-04-20T01:27:01.794Z,88.22
2023-04-20T01:29:28.426Z,88.26
2023-04-20T01:31:55.164Z,89.32
2023-04-20T01:34:21.730Z,89.68
2023-04-20T01:36:48.355Z,89.55
2023-04-20T01:39:15.085Z,89.88
2023-04-20T01:41:41.879Z,90.07
2023-04-20T01:44:08.448Z,91.39
2023-04-20T01:46:41.712Z,91.94
2023-04-20T01:49:08.864Z,91.94
2023-04-20T01:51:35.896Z,91.87
2023-04-20T01:54:02.953Z,93.57
2023-04-20T01:56:29.564Z,93.84
2023-04-20T01:58:56.167Z,94.74
2023-04-20T02:01:22.809Z,95.63
2023-04-20T02:03:50.011Z,95.17
2023-04-20T02:06:17.089Z,94.83
2023-04-20T02:08:43.749Z,95.00
2023-04-20T02:11:10.333Z,95.46
2023-04-20T02:13:36.921Z,94.55
2023-04-20T02:16:03.613Z,93.94
2023-04-20T02:18:32.319Z,94.00
2023-04-20T02:21:00.917Z,94.40
2023-04-20T02:23:27.809Z,93.98
2023-04-20T02:25:54.549Z,93.99
2023-04-20T02:28:21.093Z,93.77
2023-04-20T02:30:47.679Z,93.97
2023-04-20T02:33:14.356Z,93.76
2023-04-20T02:35:40.917Z,93.32
2023-04-20T02:38:07.502Z,91.99
2023-04-20T02:40:34.035Z,92.59
2023-04-20T02:43:00.614Z,93.54
2023-04-20T02:45:27.151Z,94.30
2023-04-20T02:47:53.811Z,93.45
2023-04-20T02:50:20.936Z,94.16
2023-04-20T02:52:47.518Z,94.90
2023-04-20T02:55:14.296Z,95.09
2023-04-20T02:57:40.902Z,95.17
2023-04-20T03:00:09.087Z,95.63
2023-04-20T03:02:37.596Z,95.52
2023-04-20T03:05:04.696Z,95.04
2023-04-20T03:07:31.591Z,94.95
2023-04-20T03:09:58.138Z,95.21
2023-04-20T03:12:24.809Z,94.93
2023-04-20T03:14:51.827Z,94.82
2023-04-20T03:17:18.383Z,94.94
2023-04-20T03:19:44.959Z,95.04
2023-04-20T03:22:11.929Z,94.50
2023-04-20T03:24:38.451Z,94.86
2023-04-20T03:27:06.257Z,94.59
2023-04-20T03:29:32.823Z,94.76
2023-04-20T03:31:59.436Z,94.98
2023-04-20T03:34:26.791Z,94.48
2023-04-20T03:36:53.458Z,94.57
2023-04-20T03:39:20.184Z,94.74
2023-04-20T03:41:46.849Z,94.35
2023-04-20T03:44:15.132Z,94.12
2023-04-20T03:46:41.660Z,94.17
2023-04-20T03:49:08.237Z,95.27
2023-04-20T03:51:34.785Z,95.91
2023-04-20T03:54:01.419Z,96.01
2023-04-20T03:56:28.515Z,96.71
2023-04-20T03:58:55.090Z,96.52
2023-04-20T04:01:21.696Z,95.98
2023-04-20T04:03:48.624Z,95.99
2023-04-20T04:06:15.611Z,96.02
2023-04-20T04:08:42.137Z,96.25
2023-04-20T04:11:08.777Z,96.23
2023-04-20T04:13:36.465Z,96.15
2023-04-20T04:16:03.138Z,97.41
2023-04-20T04:18:32.531Z,97.82
2023-04-20T04:20:59.552Z,97.90
2023-04-20T04:23:26.401Z,98.24
2023-04-20T04:25:52.968Z,98.24
2023-04-20T04:28:19.776Z,98.74
2023-04-20T04:30:47.432Z,99.16
2023-04-20T04:33:14.841Z,99.25
2023-04-20T04:35:41.701Z,99.38
2023-04-20T04:38:08.631Z,99.40
2023-04-20T04:40:35.907Z,99.40
2023-04-20T04:43:02.756Z,99.57
2023-04-20T04:45:29.507Z,99.62
2023-04-20T04:47:57.243Z,99.50
2023-04-20T04:50:23.932Z,99.55
2023-04-20T04:52:50.561Z,99.60
2023-04-20T04:55:17.264Z,99.59
2023-04-20T04:57:43.809Z,99.85
2023-04-20T05:00:12.462Z,99.97
2023-04-20T05:02:39.460Z,99.68
2023-04-20T05:05:09.405Z,99.40
2023-04-20T05:07:36.358Z,99.56
2023-04-20T05:10:02.965Z,99.68
2023-04-20T05:12:29.592Z,100.00
2023-04-20T05:14:56.156Z,100.00
2023-04-20T05:17:22.722Z,99.53
2023-04-20T05:19:49.335Z,99.42
2023-04-20T05:22:15.890Z,99.77
2023-04-20T05:24:42.599Z,99.19
2023-04-20T05:27:09.582Z,99.10
2023-04-20T05:29:36.378Z,98.94
2023-04-20T05:32:03.122Z,98.19
2023-04-20T05:34:29.997Z,98.38
2023-04-20T05:36:59.207Z,98.07
2023-04-20T05:39:26.431Z,97.94
2023-04-20T05:41:53.053Z,97.55
2023-04-20T05:44:19.568Z,97.10
2023-04-20T05:46:46.246Z,97.35
2023-04-20T05:49:12.816Z,97.71
2023-04-20T05:51:39.368Z,96.68
2023-04-20T05:54:06.164Z,96.16
2023-04-20T05:56:32.790Z,96.73
2023-04-20T05:59:00.071Z,96.70
2023-04-20T06:01:26.667Z,96.20
2023-04-20T06:03:53.485Z,95.83
2023-04-20T06:06:20.076Z,95.53
2023-04-20T06:08:46.668Z,95.03
2023-04-20T06:11:13.255Z,94.99
2023-04-20T06:13:39.838Z,95.36
2023-04-20T06:16:09.558Z,94.95
2023-04-20T06:18:37.262Z,93.18
2023-04-20T06:21:04.516Z,91.21
2023-04-20T06:23:31.479Z,88.92
2023-04-20T06:25:58.069Z,87.96
2023-04-20T06:28:24.714Z,86.51
2023-04-20T06:30:51.333Z,85.98
2023-04-20T06:33:18.058Z,83.71
2023-04-20T06:35:44.751Z,84.21
2023-04-20T06:38:11.427Z,83.76
2023-04-20T06:40:38.140Z,84.00
2023-04-20T06:43:04.732Z,82.74
2023-04-20T06:45:32.906Z,81.25
2023-04-20T06:48:00.748Z,79.62
2023-04-20T06:50:27.425Z,80.16
2023-04-20T06:52:54.052Z,78.15
2023-04-20T06:55:21.069Z,77.91
2023-04-20T06:57:47.661Z,76.04
2023-04-20T07:00:15.112Z,75.05
2023-04-20T07:02:51.537Z,76.02
2023-04-20T07:05:18.630Z,74.33
2023-04-20T07:07:45.681Z,70.75
2023-04-20T07:10:14.192Z,69.08
2023-04-20T07:12:42.821Z,67.92
2023-04-20T07:15:10.888Z,67.67
2023-04-20T07:17:37.522Z,69.20
2023-04-20T07:20:09.074Z,69.48
2023-04-20T07:22:38.959Z,68.89
2023-04-20T07:25:07.925Z,68.99
2023-04-20T07:27:36.641Z,68.16
2023-04-20T07:30:03.973Z,66.99
2023-04-20T07:32:30.596Z,65.08
2023-04-20T07:34:57.223Z,64.60
2023-04-20T07:37:25.814Z,64.21
2023-04-20T07:39:53.825Z,61.80
2023-04-20T07:42:21.569Z,61.58
2023-04-20T07:44:48.623Z,61.82
2023-04-20T07:47:15.439Z,61.79
2023-04-20T07:49:43.349Z,59.69
2023-04-20T07:52:16.941Z,59.05
2023-04-20T07:54:47.508Z,57.39
2023-04-20T07:57:14.109Z,57.13
2023-04-20T07:59:41.315Z,56.78
2023-04-20T08:02:08.732Z,56.53
2023-04-20T08:04:39.046Z,57.65
2023-04-20T08:07:05.877Z,56.49
2023-04-20T08:09:32.707Z,54.29
2023-04-20T08:12:00.348Z,54.76
2023-04-20T08:14:27.098Z,56.25
2023-04-20T08:16:53.729Z,53.49
2023-04-20T08:19:20.460Z,55.02
2023-04-20T08:21:47.020Z,54.39
2023-04-20T08:24:13.751Z,53.88
2023-04-20T08:26:40.848Z,52.28
2023-04-20T08:29:07.488Z,53.06
2023-04-20T08:31:34.272Z,52.60
2023-04-20T08:34:01.370Z,50.24
2023-04-20T08:36:28.179Z,52.05
2023-04-20T08:38:58.625Z,51.74
2023-04-20T08:41:26.402Z,51.52
2023-04-20T08:43:52.976Z,49.85
2023-04-20T08:46:19.978Z,49.54
2023-04-20T08:48:48.607Z,49.46
2023-04-20T08:51:17.208Z,49.08
2023-04-20T08:53:44.172Z,48.53
2023-04-20T08:56:11.170Z,48.19
2023-04-20T08:58:42.212Z,48.76
2023-04-20T09:01:10.559Z,47.16
2023-04-20T09:03:43.037Z,48.15
2023-04-20T09:06:18.403Z,46.96
2023-04-20T09:08:46.500Z,46.47
2023-04-20T09:11:23.786Z,44.91
2023-04-20T09:14:07.346Z,46.33
2023-04-20T09:16:40.119Z,44.47
2023-04-20T09:19:09.251Z,43.87
2023-04-20T09:21:36.417Z,43.37
2023-04-20T09:24:08.177Z,44.16
2023-04-20T09:26:36.265Z,42.37
2023-04-20T09:29:04.311Z,42.48
2023-04-20T09:31:31.051Z,41.32
2023-04-20T09:34:02.904Z,42.61
2023-04-20T09:36:37.353Z,41.13
2023-04-20T09:39:11.544Z,41.46
2023-04-20T09:41:38.733Z,41.59
2023-04-20T09:44:06.254Z,41.34
2023-04-20T09:46:35.085Z,40.05
2023-04-20T09:49:04.346Z,41.20
2023-04-20T09:51:33.450Z,40.50
2023-04-20T09:54:01.759Z,40.69
2023-04-20T09:56:30.613Z,41.57
2023-04-20T09:58:58.207Z,40.05
2023-04-20T10:01:25.592Z,40.61
2023-04-20T10:03:57.577Z,40.83
2023-04-20T10:06:27.738Z,39.36
2023-04-20T10:08:55.383Z,39.57
2023-04-20T10:11:53.829Z,39.55
2023-04-20T10:14:26.154Z,38.98
2023-04-20T10:17:08.836Z,39.67
2023-04-20T10:19:39.109Z,39.33
2023-04-20T10:22:06.912Z,38.75
2023-04-20T10:24:33.580Z,35.05
2023-04-20T10:27:00.536Z,35.21
2023-04-20T10:29:28.821Z,36.69
2023-04-20T10:31:56.140Z,37.90
2023-04-20T10:34:36.314Z,38.66
2023-04-20T10:37:13.402Z,38.99
2023-04-20T10:39:47.227Z,38.95
2023-04-20T10:42:15.481Z,37.56
2023-04-20T10:44:54.586Z,37.62
2023-04-20T10:47:29.836Z,36.84
2023-04-20T10:50:15.650Z,34.50
2023-04-20T10:52:44.671Z,35.83
2023-04-20T10:55:25.009Z,36.42
2023-04-20T10:57:52.316Z,35.92
2023-04-20T11:00:21.736Z,35.67
2023-04-20T11:02:50.416Z,34.32
2023-04-20T11:05:18.881Z,33.52
2023-04-20T11:07:53.669Z,34.20
2023-04-20T11:10:22.060Z,36.17
2023-04-20T11:12:48.976Z,35.52
2023-04-20T11:15:16.410Z,33.46
2023-04-20T11:17:43.136Z,34.81
2023-04-20T11:20:15.472Z,34.70
2023-04-20T11:22:43.430Z,33.25
2023-04-20T11:25:11.956Z,32.94
2023-04-20T11:27:39.616Z,33.45
2023-04-20T11:30:09.076Z,33.38
2023-04-20T11:32:36.234Z,33.29
2023-04-20T11:35:07.812Z,34.12
2023-04-20T11:37:48.103Z,29.86
2023-04-20T11:40:15.327Z,30.79
2023-04-20T11:42:41.948Z,31.65
2023-04-20T11:45:09.151Z,29.92
2023-04-20T11:47:35.732Z,31.66
2023-04-20T11:50:02.292Z,29.44
2023-04-20T11:52:28.899Z,30.96
2023-04-20T11:54:55.487Z,29.33
2023-04-20T11:57:23.886Z,29.66
2023-04-20T11:59:50.633Z,29.50
2023-04-20T12:02:17.515Z,29.04
2023-04-20T12:04:44.328Z,29.52
2023-04-20T12:07:11.035Z,29.66
2023-04-20T12:09:38.434Z,29.54
2023-04-20T12:12:06.148Z,27.32
2023-04-20T12:14:33.727Z,28.76
2023-04-20T12:17:04.569Z,28.73
2023-04-20T12:19:32.102Z,29.06
2023-04-20T12:21:58.745Z,28.34
2023-04-20T12:24:25.351Z,27.14
2023-04-20T12:26:51.969Z,27.54
2023-04-20T12:29:18.656Z,27.11
2023-04-20T12:31:45.456Z,25.59
2023-04-20T12:34:12.328Z,27.97
2023-04-20T12:36:38.926Z,27.80
2023-04-20T12:39:05.630Z,28.35
2023-04-20T12:41:33.215Z,26.03
2023-04-20T12:44:00.762Z,26.14
2023-04-20T12:46:28.808Z,25.86
2023-04-20T12:48:56.196Z,26.03
2023-04-20T12:51:22.813Z,25.75
2023-04-20T12:53:49.416Z,26.60
2023-04-20T12:56:16.014Z,25.05
2023-04-20T12:58:42.581Z,25.95
2023-04-20T13:01:09.958Z,26.00
2023-04-20T13:03:36.802Z,23.25
2023-04-20T13:06:03.668Z,23.54
2023-04-20T13:08:30.440Z,25.08
2023-04-20T13:10:56.987Z,24.40
2023-04-20T13:13:23.525Z,21.35
2023-04-20T13:15:50.151Z,21.39
2023-04-20T13:18:16.750Z,21.63
2023-04-20T13:20:43.316Z,23.44
2023-04-20T13:23:09.947Z,22.79
2023-04-20T13:25:38.656Z,20.13
2023-04-20T13:28:05.612Z,22.14
2023-04-20T13:30:32.725Z,21.56
2023-04-20T13:32:59.400Z,20.10
2023-04-20T13:35:26.319Z,19.56
2023-04-20T13:37:52.888Z,20.25
2023-04-20T13:40:19.448Z,18.63
2023-04-20T13:42:46.080Z,18.89
2023-04-20T13:45:12.683Z,20.19
2023-04-20T13:47:40.389Z,20.53
2023-04-20T13:50:07.750Z,22.21
2023-04-20T13:52:34.726Z,20.06
2023-04-20T13:55:01.349Z,22.56
2023-04-20T13:57:27.966Z,21.99
2023-04-20T13:59:54.538Z,18.93
2023-04-20T14:02:21.405Z,19.65
2023-04-20T14:04:48.151Z,21.54
2023-04-20T14:07:14.809Z,21.84
2023-04-20T14:09:41.518Z,23.26
2023-04-20T14:12:08.193Z,23.61
2023-04-20T14:14:34.760Z,22.09
2023-04-20T14:17:02.022Z,21.41
2023-04-20T14:19:28.643Z,19.75
2023-04-20T14:21:55.376Z,19.17
2023-04-20T14:24:21.939Z,18.75
2023-04-20T14:26:48.571Z,18.17
2023-04-20T14:29:15.743Z,17.29
2023-04-20T14:31:42.404Z,17.41
2023-04-20T14:34:09.593Z,17.10
2023-04-20T14:36:36.235Z,16.18
2023-04-20T14:39:02.819Z,15.45
2023-04-20T14:41:30.659Z,15.20
2023-04-20T14:43:58.328Z,15.92
2023-04-20T14:46:25.057Z,15.44
2023-04-20T14:48:52.256Z,16.32
2023-04-20T14:51:20.814Z,14.91
2023-04-20T14:53:47.382Z,15.91
2023-04-20T14:56:13.955Z,16.88
2023-04-20T14:58:42.353Z,17.10
2023-04-20T15:01:09.086Z,17.20
2023-04-20T15:03:35.939Z,14.20
2023-04-20T15:06:03.599Z,14.53
2023-04-20T15:08:30.704Z,15.75
2023-04-20T15:10:57.504Z,16.37
2023-04-20T15:13:24.713Z,16.67
2023-04-20T15:15:54.185Z,17.01
2023-04-20T15:18:21.736Z,17.20
2023-04-20T15:20:50.451Z,16.14
2023-04-20T15:23:17.251Z,16.24
2023-04-20T15:25:43.949Z,16.42
2023-04-20T15:28:11.224Z,15.50
2023-04-20T15:30:37.904Z,15.18
2023-04-20T15:33:05.491Z,15.47
2023-04-20T15:35:32.893Z,14.66
2023-04-20T15:37:59.524Z,15.18
2023-04-20T15:40:27.354Z,14.30
2023-04-20T15:42:57.684Z,15.36
2023-04-20T15:45:24.621Z,15.38
2023-04-20T15:47:51.713Z,15.11
2023-04-20T15:50:19.080Z,15.66
2023-04-20T15:52:49.652Z,17.26
2023-04-20T15:55:16.760Z,16.82
2023-04-20T15:57:44.495Z,18.54
2023-04-20T16:00:12.213Z,20.40
2023-04-20T16:02:40.122Z,20.77
2023-04-20T16:05:07.754Z,22.47
2023-04-20T16:07:34.444Z,23.15
2023-04-20T16:10:02.177Z,24.22
2023-04-20T16:12:29.146Z,25.60
2023-04-20T16:14:57.108Z,26.76
2023-04-20T16:17:23.866Z,27.16
2023-04-20T16:19:50.471Z,28.21
2023-04-20T16:22:17.237Z,29.67
2023-04-20T16:24:43.780Z,30.11
2023-04-20T16:27:10.462Z,31.55
2023-04-20T16:29:37.055Z,31.41
2023-04-20T16:32:03.656Z,31.23
2023-04-20T16:34:31.595Z,31.98
2023-04-20T16:36:58.642Z,32.82
2023-04-20T16:39:25.330Z,33.46
2023-04-20T16:41:51.938Z,33.31
2023-04-20T16:44:18.745Z,34.34
2023-04-20T16:46:49.857Z,34.23
2023-04-20T16:49:16.666Z,34.51
2023-04-20T16:51:43.372Z,34.54
2023-04-20T16:54:11.538Z,35.09
2023-04-20T16:56:38.521Z,34.92
2023-04-20T16:59:05.355Z,34.71
2023-04-20T17:01:32.151Z,33.98
2023-04-20T17:03:59.828Z,34.71
2023-04-20T17:06:27.465Z,35.00
2023-04-20T17:08:56.012Z,35.36
2023-04-20T17:11:22.622Z,36.45
2023-04-20T17:13:49.349Z,36.20
2023-04-20T17:16:16.056Z,36.78
2023-04-20T17:18:42.675Z,37.14
2023-04-20T17:21:09.234Z,36.57
2023-04-20T17:23:36.083Z,37.94
2023-04-20T17:26:03.148Z,37.83
2023-04-20T17:28:29.803Z,38.86
2023-04-20T17:30:56.371Z,39.53
2023-04-20T17:33:22.973Z,39.88
2023-04-20T17:35:49.560Z,39.68
2023-04-20T17:38:16.136Z,40.49
2023-04-20T17:40:42.760Z,40.58
2023-04-20T17:43:09.445Z,42.10
2023-04-20T17:45:37.098Z,41.39
2023-04-20T17:48:04.091Z,41.14
2023-04-20T17:50:30.768Z,41.19
2023-04-20T17:52:57.385Z,40.97
2023-04-20T17:55:24.050Z,41.47
2023-04-20T17:57:50.986Z,40.73
2023-04-20T18:00:18.705Z,42.27
2023-04-20T18:02:45.437Z,41.51
2023-04-20T18:05:12.187Z,42.27
2023-04-20T18:07:38.757Z,43.02
2023-04-20T18:10:06.023Z,42.17
2023-04-20T18:12:33.619Z,42.39
2023-04-20T18:15:00.766Z,43.74
2023-04-20T18:17:27.528Z,43.65
2023-04-20T18:19:54.154Z,42.88
2023-04-20T18:22:20.931Z,45.00
2023-04-20T18:24:47.498Z,44.11
2023-04-20T18:27:14.068Z,43.46
2023-04-20T18:29:40.625Z,44.83
2023-04-20T18:32:07.178Z,44.53
2023-04-20T18:34:33.768Z,44.64
2023-04-20T18:37:00.425Z,44.38
2023-04-20T18:39:27.064Z,44.27
2023-04-20T18:41:53.674Z,44.28
2023-04-20T18:44:20.855Z,44.67
2023-04-20T18:46:47.805Z,44.85
2023-04-20T18:49:14.464Z,45.17
2023-04-20T18:51:41.043Z,45.70
2023-04-20T18:54:07.679Z,45.41
2023-04-20T18:56:34.271Z,45.70
2023-04-20T18:59:01.583Z,45.91
2023-04-20T19:01:28.634Z,46.74
2023-04-20T19:03:55.660Z,46.71
2023-04-20T19:06:22.584Z,46.24
2023-04-20T19:08:50.937Z,46.33
2023-04-20T19:11:17.765Z,47.49
2023-04-20T19:13:45.315Z,47.45
2023-04-20T19:16:12.773Z,47.04
2023-04-20T19:18:39.683Z,46.80
2023-04-20T19:21:06.768Z,46.73
2023-04-20T19:23:33.648Z,47.38
2023-04-20T19:26:00.410Z,47.19
2023-04-20T19:28:26.957Z,48.16
2023-04-20T19:30:53.682Z,47.96
2023-04-20T19:33:20.888Z,47.76
2023-04-20T19:35:53.562Z,48.42
2023-04-20T19:38:21.533Z,48.04
2023-04-20T19:40:48.578Z,48.68
2023-04-20T19:43:16.931Z,50.00
2023-04-20T19:45:44.127Z,48.63
2023-04-20T19:48:10.912Z,49.60
2023-04-20T19:50:37.512Z,48.98
2023-04-20T19:53:04.107Z,48.95
2023-04-20T19:55:31.039Z,49.45
2023-04-20T19:57:57.628Z,49.42
2023-04-20T20:00:24.251Z,50.04
2023-04-20T20:02:50.898Z,51.33
2023-04-20T20:05:17.663Z,50.00
2023-04-20T20:07:44.364Z,49.21
2023-04-20T20:10:11.113Z,52.12
2023-04-20T20:12:37.698Z,51.31
2023-04-20T20:15:04.863Z,50.26
2023-04-20T20:17:31.662Z,51.70
2023-04-20T20:19:58.342Z,50.23
2023-04-20T20:22:25.234Z,51.25
2023-04-20T20:24:54.219Z,50.82
2023-04-20T20:27:21.256Z,50.96
2023-04-20T20:29:47.974Z,51.15
2023-04-20T20:32:14.699Z,50.79
2023-04-20T20:34:41.634Z,51.18
2023-04-20T20:37:10.305Z,52.58
2023-04-20T20:39:37.467Z,52.00
2023-04-20T20:42:05.383Z,53.66
2023-04-20T20:44:34.258Z,52.72
2023-04-20T20:47:01.102Z,53.44
2023-04-20T20:49:29.208Z,52.74
2023-04-20T20:51:55.960Z,52.89
2023-04-20T20:54:22.557Z,54.43
2023-04-20T20:56:49.195Z,54.28
2023-04-20T20:59:15.840Z,54.56
2023-04-20T21:01:42.570Z,54.66
2023-04-20T21:04:09.305Z,54.56
2023-04-20T21:06:36.167Z,54.84
2023-04-20T21:09:02.776Z,56.12
2023-04-20T21:11:29.408Z,56.24
2023-04-20T21:14:01.511Z,56.51
2023-04-20T21:16:28.671Z,56.30
2023-04-20T21:18:55.334Z,57.47
2023-04-20T21:21:21.928Z,57.84
2023-04-20T21:23:49.773Z,58.20
2023-04-20T21:26:16.491Z,58.31
2023-04-20T21:28:43.032Z,57.66
2023-04-20T21:31:09.676Z,58.45
2023-04-20T21:33:36.517Z,57.96
2023-04-20T21:36:03.125Z,58.63
2023-04-20T21:38:29.672Z,57.37
2023-04-20T21:40:56.222Z,58.61
2023-04-20T21:43:22.768Z,58.62
2023-04-20T21:45:50.853Z,58.70
2023-04-20T21:48:18.129Z,58.99
2023-04-20T21:50:44.691Z,58.83
2023-04-20T21:53:11.273Z,59.66
2023-04-20T21:55:37.839Z,59.46
2023-04-20T21:58:06.671Z,60.64
2023-04-20T22:00:33.246Z,61.17
2023-04-20T22:02:59.969Z,60.00
2023-04-20T22:05:27.841Z,61.11
2023-04-20T22:07:54.414Z,60.97
2023-04-20T22:10:21.183Z,61.25
2023-04-20T22:12:47.859Z,61.74
2023-04-20T22:15:15.023Z,61.19
2023-04-20T22:17:41.653Z,62.07
2023-04-20T22:20:10.313Z,62.32
2023-04-20T22:22:37.810Z,62.07
2023-04-20T22:25:05.316Z,62.88
2023-04-20T22:27:34.028Z,62.66
2023-04-20T22:30:00.870Z,62.74
2023-04-20T22:32:27.714Z,61.77
2023-04-20T22:34:54.371Z,62.97
2023-04-20T22:37:21.067Z,62.53
2023-04-20T22:39:47.621Z,63.91
2023-04-20T22:42:14.177Z,64.94
2023-04-20T22:44:40.882Z,66.24
2023-04-20T22:47:07.654Z,64.90
2023-04-20T22:49:34.974Z,65.81
2023-04-20T22:52:01.732Z,65.57
2023-04-20T22:54:28.335Z,66.35
2023-04-20T22:56:54.892Z,65.50
2023-04-20T22:59:21.570Z,67.06
2023-04-20T23:01:48.325Z,67.92
2023-04-20T23:04:14.996Z,66.22
2023-04-20T23:06:43.869Z,68.00
2023-04-20T23:09:13.285Z,67.54
2023-04-20T23:11:40.540Z,66.89
2023-04-20T23:14:08.671Z,66.36
2023-04-20T23:16:35.950Z,65.88
2023-04-20T23:19:02.627Z,64.83
2023-04-20T23:21:29.233Z,65.52
2023-04-20T23:23:58.986Z,65.01
2023-04-20T23:26:25.554Z,64.57
2023-04-20T23:28:53.446Z,66.30
2023-04-20T23:31:20.709Z,65.28
2023-04-20T23:33:48.207Z,64.96
2023-04-20T23:36:14.922Z,64.96
2023-04-20T23:38:42.016Z,65.73
2023-04-20T23:41:12.662Z,66.30
2023-04-20T23:43:39.899Z,66.23
2023-04-20T23:46:07.295Z,67.50
2023-04-20T23:48:34.686Z,66.86
2023-04-20T23:51:01.750Z,67.20
2023-04-20T23:53:28.505Z,68.12
2023-04-20T23:55:59.907Z,68.86
2023-04-20T23:58:28.274Z,68.26
